createdAt,value
2019-06-26T00:04:35.494Z,28.69
2019-06-26T00:09:38.222Z,28.63
2019-06-26T00:14:40.912Z,28.58
2019-06-26T00:19:43.608Z,28.63
2019-06-26T00:24:46.326Z,28.67
2019-06-26T00:29:49.290Z,28.57
2019-06-26T00:34:52.074Z,28.53
2019-06-26T00:39:54.756Z,28.41
2019-06-26T00:44:57.466Z,28.40
2019-06-26T00:50:00.841Z,28.27
2019-06-26T00:55:05.343Z,28.25
2019-06-26T01:00:09.214Z,28.32
2019-06-26T01:05:13.137Z,28.42
2019-06-26T01:10:17.861Z,28.51
2019-06-26T01:15:20.671Z,28.60
2019-06-26T01:20:23.393Z,28.63
2019-06-26T01:25:26.084Z,28.61
2019-06-26T01:30:28.781Z,28.49
2019-06-26T01:35:31.495Z,28.49
2019-06-26T01:40:34.192Z,28.55
2019-06-26T01:45:36.907Z,28.61
2019-06-26T01:50:39.650Z,28.64
2019-06-26T01:55:42.422Z,28.61
2019-06-26T02:00:45.124Z,28.59
2019-06-26T02:05:47.839Z,28.60
2019-06-26T02:10:50.530Z,28.56
2019-06-26T02:15:53.244Z,28.55
2019-06-26T02:20:55.970Z,28.52
2019-06-26T02:25:58.671Z,28.48
2019-06-26T02:31:01.372Z,28.48
2019-06-26T02:36:04.096Z,28.43
2019-06-26T02:41:06.946Z,28.36
2019-06-26T02:46:09.677Z,28.31
2019-06-26T02:51:12.459Z,28.22
2019-06-26T02:56:15.149Z,28.21
2019-06-26T03:01:17.900Z,28.18
2019-06-26T03:06:20.627Z,28.16
2019-06-26T03:11:23.356Z,27.93
2019-06-26T03:16:26.099Z,28.05
2019-06-26T03:21:28.816Z,27.99
2019-06-26T03:26:31.594Z,28.03
2019-06-26T03:31:34.406Z,28.07
2019-06-26T03:36:37.175Z,28.13
2019-06-26T03:41:39.901Z,28.17
2019-06-26T03:46:42.620Z,28.28
2019-06-26T03:51:45.333Z,28.41
2019-06-26T03:56:48.066Z,28.54
2019-06-26T04:01:50.787Z,28.64
2019-06-26T04:06:54.403Z,28.70
2019-06-26T04:11:57.211Z,28.72
2019-06-26T04:16:59.946Z,28.77
2019-06-26T04:22:02.709Z,28.79
2019-06-26T04:27:05.519Z,28.87
2019-06-26T04:32:08.227Z,29.01
2019-06-26T04:37:11.058Z,29.07
2019-06-26T04:42:13.760Z,29.15
2019-06-26T04:47:16.473Z,29.27
2019-06-26T04:52:19.173Z,29.40
2019-06-26T04:57:21.867Z,29.54
2019-06-26T05:02:24.838Z,29.71
2019-06-26T05:07:27.544Z,29.62
2019-06-26T05:12:30.263Z,29.60
2019-06-26T05:17:33.008Z,29.78
2019-06-26T05:22:35.716Z,29.89
2019-06-26T05:27:38.427Z,30.02
2019-06-26T05:32:41.120Z,30.30
2019-06-26T05:37:43.830Z,30.62
2019-06-26T05:42:46.527Z,30.69
2019-06-26T05:47:49.223Z,30.84
2019-06-26T05:52:51.919Z,30.98
2019-06-26T05:57:54.893Z,31.09
2019-06-26T06:02:58.252Z,31.11
2019-06-26T06:08:01.323Z,31.29
2019-06-26T06:13:04.035Z,31.37
2019-06-26T06:18:06.750Z,31.54
2019-06-26T06:23:09.450Z,31.72
2019-06-26T06:28:12.138Z,31.88
2019-06-26T06:33:14.833Z,32.10
2019-06-26T06:38:17.533Z,32.21
2019-06-26T06:43:20.231Z,32.36
2019-06-26T06:48:22.954Z,32.44
2019-06-26T06:53:25.668Z,32.50
2019-06-26T06:58:30.226Z,32.28
2019-06-26T07:03:33.006Z,32.34
2019-06-26T07:08:35.723Z,32.50
2019-06-26T07:13:38.456Z,32.81
2019-06-26T07:18:41.255Z,32.93
2019-06-26T07:23:44.090Z,33.01
2019-06-26T07:28:46.878Z,33.00
2019-06-26T07:33:49.684Z,33.08
2019-06-26T07:38:52.419Z,33.19
2019-06-26T07:43:55.123Z,33.14
2019-06-26T07:48:57.836Z,33.27
2019-06-26T07:54:00.547Z,33.39
2019-06-26T07:59:03.330Z,33.63
2019-06-26T08:04:06.156Z,33.51
2019-06-26T08:09:08.867Z,33.50
2019-06-26T08:14:11.565Z,33.73
2019-06-26T08:19:14.267Z,33.81
2019-06-26T08:24:16.983Z,33.86
2019-06-26T08:29:19.680Z,33.86
2019-06-26T08:34:22.423Z,33.97
2019-06-26T08:39:25.192Z,34.08
2019-06-26T08:44:47.467Z,34.05
2019-06-26T08:49:50.174Z,34.09
2019-06-26T08:54:52.865Z,34.19
2019-06-26T08:59:55.559Z,34.21
2019-06-26T09:04:58.249Z,34.41
2019-06-26T09:10:00.964Z,34.59
2019-06-26T09:15:04.318Z,34.77
2019-06-26T09:20:08.339Z,34.86
2019-06-26T09:25:21.624Z,34.76
2019-06-26T09:30:16.057Z,34.81
2019-06-26T09:35:18.760Z,34.85
2019-06-26T09:40:21.551Z,34.93
2019-06-26T09:45:24.364Z,34.99
2019-06-26T09:50:27.054Z,35.02
2019-06-26T09:55:29.754Z,35.15
2019-06-26T10:00:32.752Z,35.08
2019-06-26T10:05:35.435Z,34.95
2019-06-26T10:10:38.139Z,35.04
2019-06-26T10:15:41.007Z,35.30
2019-06-26T10:20:43.717Z,35.24
2019-06-26T10:25:46.435Z,35.21
2019-06-26T10:30:49.179Z,35.29
2019-06-26T10:35:51.904Z,35.40
2019-06-26T10:40:54.632Z,35.73
2019-06-26T10:45:57.353Z,35.81
2019-06-26T10:51:00.054Z,36.06
2019-06-26T10:56:02.841Z,36.25
2019-06-26T11:01:06.039Z,36.33
2019-06-26T11:06:08.799Z,36.26
2019-06-26T11:11:11.509Z,36.13
2019-06-26T11:16:14.243Z,36.06
2019-06-26T11:21:16.936Z,35.97
2019-06-26T11:26:19.668Z,36.06
2019-06-26T11:31:22.372Z,35.76
2019-06-26T11:36:25.077Z,35.59
2019-06-26T11:41:27.807Z,35.60
2019-06-26T11:46:30.500Z,36.07
2019-06-26T11:51:33.219Z,35.95
2019-06-26T11:56:35.933Z,35.81
2019-06-26T12:01:38.631Z,35.64
2019-06-26T12:06:41.347Z,35.41
2019-06-26T12:11:44.173Z,35.57
2019-06-26T12:16:46.955Z,35.71
2019-06-26T12:21:49.668Z,35.65
2019-06-26T12:26:52.396Z,35.89
2019-06-26T12:31:55.329Z,36.01
2019-06-26T12:36:58.148Z,35.82
2019-06-26T12:42:00.941Z,36.08
2019-06-26T12:47:03.678Z,36.18
2019-06-26T12:52:06.484Z,35.84
2019-06-26T12:57:09.205Z,36.25
2019-06-26T13:02:11.907Z,35.94
2019-06-26T13:07:14.608Z,35.73
2019-06-26T13:12:17.316Z,35.38
2019-06-26T13:17:20.045Z,35.79
2019-06-26T13:22:22.823Z,35.44
2019-06-26T13:27:25.631Z,35.36
2019-06-26T13:32:28.347Z,35.19
2019-06-26T13:37:31.151Z,35.06
2019-06-26T13:42:33.872Z,35.15
2019-06-26T13:47:36.599Z,35.08
2019-06-26T13:52:39.329Z,34.97
2019-06-26T13:57:42.059Z,35.41
2019-06-26T14:02:44.788Z,36.13
2019-06-26T14:07:47.531Z,36.21
2019-06-26T14:12:50.214Z,36.42
2019-06-26T14:17:52.941Z,36.44
2019-06-26T14:22:55.638Z,36.19
2019-06-26T14:27:58.344Z,36.03
2019-06-26T14:33:01.075Z,36.00
2019-06-26T14:38:03.785Z,36.35
2019-06-26T14:43:06.490Z,36.47
2019-06-26T14:48:09.272Z,36.61
2019-06-26T14:53:12.020Z,36.25
2019-06-26T14:58:14.742Z,36.17
2019-06-26T15:03:17.458Z,36.58
2019-06-26T15:08:20.179Z,36.26
2019-06-26T15:13:22.902Z,36.57
2019-06-26T15:18:25.842Z,36.69
2019-06-26T15:23:28.610Z,35.67
2019-06-26T15:28:31.332Z,34.82
2019-06-26T15:33:36.587Z,34.11
2019-06-26T15:38:38.752Z,33.69
2019-06-26T15:43:41.499Z,33.36
2019-06-26T15:48:44.244Z,33.60
2019-06-26T15:53:47.065Z,33.67
2019-06-26T15:58:49.785Z,33.21
2019-06-26T16:03:52.537Z,33.21
2019-06-26T16:08:55.264Z,33.68
2019-06-26T16:13:58.677Z,33.89
2019-06-26T16:19:06.381Z,33.61
2019-06-26T16:24:09.286Z,32.69
2019-06-26T16:29:12.035Z,32.34
2019-06-26T16:34:14.892Z,32.29
2019-06-26T16:39:17.598Z,31.85
2019-06-26T16:44:21.024Z,31.79
2019-06-26T16:49:23.843Z,31.42
2019-06-26T16:54:26.697Z,31.37
2019-06-26T16:59:29.412Z,31.34
2019-06-26T17:04:32.141Z,30.91
2019-06-26T17:09:35.197Z,31.15
2019-06-26T17:14:37.987Z,30.70
2019-06-26T17:19:40.717Z,30.90
2019-06-26T17:24:43.438Z,30.52
2019-06-26T17:29:46.149Z,30.27
2019-06-26T17:34:48.882Z,30.14
2019-06-26T17:39:51.617Z,29.91
2019-06-26T17:44:54.999Z,29.61
2019-06-26T17:49:57.763Z,29.45
2019-06-26T17:55:00.493Z,29.34
2019-06-26T18:00:05.554Z,28.99
2019-06-26T18:05:08.567Z,28.75
2019-06-26T18:10:11.278Z,28.55
2019-06-26T18:15:14.086Z,28.28
2019-06-26T18:20:17.616Z,28.02
2019-06-26T18:25:20.524Z,27.66
2019-06-26T18:30:23.276Z,27.29
2019-06-26T18:35:26.006Z,27.19
2019-06-26T18:40:28.702Z,26.85
2019-06-26T18:45:35.948Z,26.40
2019-06-26T18:50:38.730Z,26.31
2019-06-26T18:55:43.584Z,26.15
2019-06-26T19:00:46.324Z,26.20
2019-06-26T19:05:49.083Z,25.88
2019-06-26T19:10:51.772Z,25.70
2019-06-26T19:15:54.760Z,25.61
2019-06-26T19:20:57.651Z,25.29
2019-06-26T19:26:01.054Z,25.19
2019-06-26T19:31:04.066Z,24.83
2019-06-26T19:36:07.040Z,24.43
2019-06-26T19:41:09.828Z,24.30
2019-06-26T19:46:12.580Z,24.11
2019-06-26T19:51:15.317Z,24.18
2019-06-26T19:56:20.228Z,23.99
2019-06-26T20:01:22.720Z,23.70
2019-06-26T20:06:25.475Z,23.48
2019-06-26T20:11:28.203Z,23.38
2019-06-26T20:16:30.955Z,23.12
2019-06-26T20:21:34.233Z,22.82
2019-06-26T20:26:36.957Z,22.59
2019-06-26T20:31:39.683Z,22.20
2019-06-26T20:36:42.784Z,22.03
2019-06-26T20:41:45.565Z,21.79
2019-06-26T20:46:48.346Z,21.58
2019-06-26T20:51:51.036Z,21.69
2019-06-26T20:56:53.736Z,21.70
2019-06-26T21:01:56.496Z,21.47
2019-06-26T21:06:59.291Z,21.32
2019-06-26T21:12:02.007Z,21.17
2019-06-26T21:17:04.775Z,21.13
2019-06-26T21:22:08.989Z,21.08
2019-06-26T21:27:12.122Z,21.13
2019-06-26T21:32:14.853Z,21.06
2019-06-26T21:37:17.593Z,20.96
2019-06-26T21:42:20.568Z,20.98
2019-06-26T21:47:23.281Z,21.17
2019-06-26T21:52:25.996Z,21.08
2019-06-26T21:57:29.002Z,21.09
2019-06-26T22:02:32.074Z,21.06
2019-06-26T22:07:35.371Z,20.99
2019-06-26T22:12:38.431Z,21.00
2019-06-26T22:17:41.230Z,21.01
2019-06-26T22:22:43.929Z,20.95
2019-06-26T22:27:46.917Z,20.85
2019-06-26T22:32:49.623Z,20.97
2019-06-26T22:37:52.350Z,21.09
2019-06-26T22:42:55.069Z,21.09
2019-06-26T22:47:57.790Z,21.09
2019-06-26T22:53:00.511Z,20.86
2019-06-26T22:58:03.232Z,20.84
2019-06-26T23:03:06.227Z,20.92
2019-06-26T23:08:08.936Z,20.73
2019-06-26T23:13:11.666Z,20.55
2019-06-26T23:18:15.315Z,20.52
2019-06-26T23:23:18.051Z,20.58
2019-06-26T23:28:20.818Z,20.26
2019-06-26T23:33:23.522Z,20.08
2019-06-26T23:38:26.222Z,20.09
2019-06-26T23:43:28.944Z,20.24
2019-06-26T23:48:31.660Z,20.18
2019-06-26T23:53:34.382Z,20.06
2019-06-26T23:58:37.132Z,20.08
